Thunder radar more information blitzortung!


Radar de pluja more information rain snow radar


Visita la nostra xarxa de llocs de meteo:

Template documentation
and downloads

And another site



No particular awareness of the weather is required.    There are no Weather-warnings

Pagina Historial Weather Underground text

Diari Resum Juliol 1, 2017 Unitats:  Mètric    Imperial   Tant
« Previous Dia
SegĂźent Dia »
Diari Setmana Mensual Anual Personalitzada
  Maxima: Minima: Media:
Temperatura: 26.2 °C 15.2 °C 20.9 °C
Punt de rosada: 9.7 °C 4.1 °C 7.4 °C
Humitat: 49 % 30 % 42 %
Wind Speed: 22.2 km/h 0.0 km/h 8.1 km/h
RĂ fegues de vent: 22.2 km/h - -
Vent:- - ESE
Pression baro: 1020.9 hPa 1015.8 hPa -
Precipitacions: 0.0 mm    
Historical Graphs
 
 
Dades de taula per Juliol 1, 2017
Temps Temperatura Punt de rosada Pression baro Vent Wind Speed RĂ fegues de vent Humitat Rainfall Rate (Hourly)
00:04 19.3 °C 6.1 °C 1015.8 hPa NNE 7.4 km/h 7.4 km/h 42 % 0.0 mm
00:05 16.3 °C 4.9 °C 1015.8 hPa WSW 1.6 km/h 4.8 km/h 47 % 0.0 mm
00:15 16.2 °C 4.9 °C 1015.8 hPa SW 1.6 km/h 4.8 km/h 47 % 0.0 mm
00:25 16.1 °C 4.8 °C 1015.8 hPa WSW 1.6 km/h 3.2 km/h 47 % 0.0 mm
00:35 15.9 °C 4.6 °C 1016.8 hPa WSW 1.6 km/h 3.2 km/h 47 % 0.0 mm
00:45 15.8 °C 4.5 °C 1016.8 hPa WSW 4.8 km/h 6.4 km/h 47 % 0.0 mm
00:55 15.8 °C 4.5 °C 1016.8 hPa WSW 4.8 km/h 6.4 km/h 47 % 0.0 mm
01:05 15.7 °C 4.4 °C 1017.8 hPa WSW 4.8 km/h 6.4 km/h 47 % 0.0 mm
01:15 15.6 °C 4.3 °C 1017.8 hPa WSW 3.2 km/h 4.8 km/h 47 % 0.0 mm
01:25 15.6 °C 4.3 °C 1017.8 hPa SW 1.6 km/h 3.2 km/h 47 % 0.0 mm
01:35 15.7 °C 4.4 °C 1017.8 hPa WSW 3.2 km/h 9.7 km/h 47 % 0.0 mm
01:45 15.7 °C 4.4 °C 1017.8 hPa West 4.8 km/h 6.4 km/h 47 % 0.0 mm
01:55 15.6 °C 4.3 °C 1016.8 hPa WSW 4.8 km/h 9.7 km/h 47 % 0.0 mm
02:05 15.6 °C 4.3 °C 1016.8 hPa WSW 9.7 km/h 9.7 km/h 47 % 0.0 mm
02:15 15.5 °C 4.2 °C 1016.8 hPa WSW 4.8 km/h 11.3 km/h 47 % 0.0 mm
02:25 15.5 °C 4.5 °C 1017.8 hPa WSW 1.6 km/h 6.4 km/h 48 % 0.0 mm
02:35 15.4 °C 4.1 °C 1016.8 hPa WSW 4.8 km/h 4.8 km/h 47 % 0.0 mm
02:45 15.3 °C 4.3 °C 1016.8 hPa WSW 3.2 km/h 6.4 km/h 48 % 0.0 mm
02:55 15.2 °C 4.3 °C 1017.8 hPa WSW 3.2 km/h 4.8 km/h 48 % 0.0 mm
03:05 15.2 °C 4.3 °C 1016.8 hPa West 1.6 km/h 6.4 km/h 48 % 0.0 mm
03:15 15.3 °C 4.6 °C 1016.8 hPa WNW 1.6 km/h 4.8 km/h 49 % 0.0 mm
03:25 15.5 °C 4.8 °C 1017.8 hPa NW 4.8 km/h 4.8 km/h 49 % 0.0 mm
03:35 15.9 °C 5.2 °C 1017.8 hPa WNW 3.2 km/h 6.4 km/h 49 % 0.0 mm
03:45 16.2 °C 5.4 °C 1017.8 hPa West 3.2 km/h 4.8 km/h 49 % 0.0 mm
03:55 16.4 °C 5.7 °C 1017.8 hPa West 3.2 km/h 6.4 km/h 49 % 0.0 mm
04:05 17.0 °C 5.9 °C 1017.8 hPa West 3.2 km/h 3.2 km/h 48 % 0.0 mm
04:15 17.5 °C 6.3 °C 1017.8 hPa West 4.8 km/h 4.8 km/h 48 % 0.0 mm
04:25 17.9 °C 6.4 °C 1018.8 hPa WNW 3.2 km/h 4.8 km/h 47 % 0.0 mm
04:35 18.7 °C 7.2 °C 1017.8 hPa WNW 3.2 km/h 6.4 km/h 47 % 0.0 mm
04:45 18.6 °C 7.1 °C 1017.8 hPa WSW 3.2 km/h 6.4 km/h 47 % 0.0 mm
04:55 18.8 °C 6.9 °C 1017.8 hPa WSW 4.8 km/h 4.8 km/h 46 % 0.0 mm
09:57 19.2 °C 6.9 °C 1017.8 hPa West 7.4 km/h 7.4 km/h 45 % 0.0 mm
10:02 19.2 °C 6.9 °C 1017.8 hPa WSW 11.1 km/h 11.1 km/h 45 % 0.0 mm
10:03 19.2 °C 6.9 °C 1017.8 hPa WSW 11.1 km/h 11.1 km/h 45 % 0.0 mm
10:08 19.4 °C 7.2 °C 1017.8 hPa WSW 7.4 km/h 7.4 km/h 45 % 0.0 mm
10:13 19.3 °C 7.1 °C 1017.8 hPa NE 9.3 km/h 9.3 km/h 45 % 0.0 mm
10:18 19.6 °C 7.3 °C 1017.8 hPa ENE 9.3 km/h 9.3 km/h 45 % 0.0 mm
10:23 19.2 °C 6.9 °C 1017.8 hPa NNE 11.1 km/h 11.1 km/h 45 % 0.0 mm
10:28 19.5 °C 7.2 °C 1017.8 hPa NE 10.3 km/h 10.3 km/h 45 % 0.0 mm
10:33 19.7 °C 7.4 °C 1017.8 hPa ESE 9.3 km/h 9.3 km/h 45 % 0.0 mm
10:38 20.0 °C 7.7 °C 1017.8 hPa ENE 7.4 km/h 7.4 km/h 45 % 0.0 mm
10:43 20.2 °C 7.6 °C 1017.8 hPa SSE 9.3 km/h 9.3 km/h 44 % 0.0 mm
10:48 20.2 °C 7.6 °C 1017.8 hPa ENE 11.1 km/h 11.1 km/h 44 % 0.0 mm
10:53 20.2 °C 7.6 °C 1017.8 hPa ENE 9.3 km/h 9.3 km/h 44 % 0.0 mm
10:58 20.2 °C 7.6 °C 1016.8 hPa NNE 9.3 km/h 9.3 km/h 44 % 0.0 mm
11:03 20.1 °C 7.4 °C 1016.8 hPa ENE 9.5 km/h 9.5 km/h 44 % 0.0 mm
11:08 20.5 °C 7.8 °C 1016.8 hPa ENE 7.2 km/h 7.2 km/h 44 % 0.0 mm
11:10 20.2 °C 7.2 °C 1016.8 hPa NE 9.3 km/h 9.3 km/h 43 % 0.0 mm
11:15 20.7 °C 8.0 °C 1017.8 hPa East 7.4 km/h 7.4 km/h 44 % 0.0 mm
11:20 20.9 °C 8.2 °C 1017.8 hPa ENE 9.3 km/h 9.3 km/h 44 % 0.0 mm
11:25 20.8 °C 7.8 °C 1017.8 hPa NE 13.0 km/h 13.0 km/h 43 % 0.0 mm
11:30 21.2 °C 7.8 °C 1016.8 hPa NNE 13.0 km/h 13.0 km/h 42 % 0.0 mm
11:35 21.5 °C 8.1 °C 1016.8 hPa ENE 9.3 km/h 9.3 km/h 42 % 0.0 mm
11:40 21.3 °C 7.9 °C 1016.8 hPa SE 7.4 km/h 7.4 km/h 42 % 0.0 mm
11:45 21.5 °C 8.1 °C 1017.8 hPa ESE 7.4 km/h 7.4 km/h 42 % 0.0 mm
11:50 22.0 °C 8.5 °C 1017.8 hPa ESE 7.4 km/h 7.4 km/h 42 % 0.0 mm
11:55 22.2 °C 8.7 °C 1017.8 hPa North 7.4 km/h 7.4 km/h 42 % 0.0 mm
12:00 21.7 °C 8.2 °C 1016.8 hPa NE 10.0 km/h 10.0 km/h 42 % 0.0 mm
12:05 21.9 °C 8.4 °C 1016.8 hPa NNE 5.8 km/h 5.8 km/h 42 % 0.0 mm
12:10 22.6 °C 8.7 °C 1016.8 hPa ENE 7.6 km/h 7.6 km/h 41 % 0.0 mm
12:15 23.1 °C 8.8 °C 1017.8 hPa West 9.3 km/h 9.3 km/h 40 % 0.0 mm
12:20 23.1 °C 8.8 °C 1017.8 hPa SSE 5.6 km/h 5.6 km/h 40 % 0.0 mm
12:25 23.6 °C 9.2 °C 1017.8 hPa SSE 5.6 km/h 5.6 km/h 40 % 0.0 mm
12:30 23.6 °C 8.8 °C 1017.8 hPa ESE 5.6 km/h 5.6 km/h 39 % 0.0 mm
12:35 23.6 °C 8.8 °C 1017.8 hPa ENE 4.2 km/h 4.7 km/h 39 % 0.0 mm
12:40 24.1 °C 9.7 °C 1017.8 hPa NE 5.6 km/h 5.6 km/h 40 % 0.0 mm
12:45 24.2 °C 9.4 °C 1017.8 hPa SSE 7.4 km/h 7.4 km/h 39 % 0.0 mm
12:50 24.4 °C 9.6 °C 1017.8 hPa SW 7.4 km/h 7.4 km/h 39 % 0.0 mm
12:55 24.1 °C 8.9 °C 1017.8 hPa North 3.7 km/h 3.7 km/h 38 % 0.0 mm
13:00 24.8 °C 9.5 °C 1017.8 hPa East 9.5 km/h 9.5 km/h 38 % 0.0 mm
13:05 24.4 °C 8.8 °C 1017.8 hPa ESE 9.3 km/h 9.3 km/h 37 % 0.0 mm
13:10 24.3 °C 9.1 °C 1017.8 hPa NNE 11.1 km/h 11.1 km/h 38 % 0.0 mm
13:15 24.4 °C 8.8 °C 1017.8 hPa East 7.4 km/h 7.4 km/h 37 % 0.0 mm
13:20 25.4 °C 9.2 °C 1017.8 hPa SSW 8.7 km/h 8.7 km/h 36 % 0.0 mm
13:25 25.3 °C 8.7 °C 1017.8 hPa SW 3.7 km/h 3.7 km/h 35 % 0.0 mm
13:30 25.3 °C 8.7 °C 1017.8 hPa SW 5.6 km/h 5.6 km/h 35 % 0.0 mm
13:35 26.1 °C 9.4 °C 1017.8 hPa WNW 5.6 km/h 5.6 km/h 35 % 0.0 mm
13:40 25.6 °C 8.6 °C 1017.8 hPa WSW 11.1 km/h 11.1 km/h 34 % 0.0 mm
13:45 25.4 °C 8.4 °C 1017.8 hPa West 5.6 km/h 5.6 km/h 34 % 0.0 mm
13:50 25.1 °C 7.7 °C 1017.8 hPa South 7.4 km/h 7.4 km/h 33 % 0.0 mm
13:56 25.4 °C 7.1 °C 1017.8 hPa NE 9.3 km/h 9.3 km/h 31 % 0.0 mm
14:01 25.3 °C 7.4 °C 1017.8 hPa SW 7.4 km/h 7.4 km/h 32 % 0.0 mm
14:06 25.6 °C 7.2 °C 1017.8 hPa ESE 9.7 km/h 9.7 km/h 31 % 0.0 mm
14:11 25.1 °C 7.2 °C 1017.8 hPa NNE 5.6 km/h 5.6 km/h 32 % 0.0 mm
14:16 25.5 °C 7.6 °C 1017.8 hPa WNW 7.4 km/h 7.4 km/h 32 % 0.0 mm
14:21 25.8 °C 7.4 °C 1017.8 hPa East 7.4 km/h 7.4 km/h 31 % 0.0 mm
14:26 25.5 °C 7.1 °C 1017.8 hPa South 7.4 km/h 7.4 km/h 31 % 0.0 mm
14:31 25.8 °C 7.4 °C 1016.8 hPa WNW 5.6 km/h 5.6 km/h 31 % 0.0 mm
14:36 26.2 °C 7.7 °C 1016.8 hPa WSW 5.0 km/h 5.0 km/h 31 % 0.0 mm
14:41 26.0 °C 7.6 °C 1016.8 hPa WNW 5.6 km/h 5.6 km/h 31 % 0.0 mm
14:46 25.7 °C 6.8 °C 1016.8 hPa NNE 5.3 km/h 5.3 km/h 30 % 0.0 mm
14:51 25.8 °C 6.9 °C 1016.8 hPa ESE 4.7 km/h 4.7 km/h 30 % 0.0 mm
14:56 25.4 °C 6.6 °C 1016.8 hPa ENE 5.8 km/h 5.8 km/h 30 % 0.0 mm
15:01 25.3 °C 6.9 °C 1016.8 hPa ESE 9.3 km/h 9.3 km/h 31 % 0.0 mm
15:06 24.7 °C 6.9 °C 1016.8 hPa ESE 9.3 km/h 9.3 km/h 32 % 0.0 mm
15:11 24.8 °C 7.4 °C 1016.8 hPa ESE 16.9 km/h 16.9 km/h 33 % 0.0 mm
15:16 24.1 °C 6.8 °C 1017.8 hPa ESE 20.4 km/h 20.4 km/h 33 % 0.0 mm
15:21 23.8 °C 7.0 °C 1017.8 hPa ENE 16.7 km/h 16.7 km/h 34 % 0.0 mm
15:26 23.5 °C 7.2 °C 1017.8 hPa ESE 17.2 km/h 17.2 km/h 35 % 0.0 mm
15:31 23.3 °C 6.9 °C 1016.8 hPa East 16.7 km/h 16.7 km/h 35 % 0.0 mm
15:36 23.3 °C 7.4 °C 1016.8 hPa ESE 16.9 km/h 16.9 km/h 36 % 0.0 mm
15:41 23.4 °C 7.5 °C 1016.8 hPa East 11.1 km/h 11.1 km/h 36 % 0.0 mm
15:46 23.4 °C 7.5 °C 1017.8 hPa East 11.1 km/h 11.1 km/h 36 % 0.0 mm
15:51 23.2 °C 7.7 °C 1017.8 hPa SE 13.0 km/h 13.0 km/h 37 % 0.0 mm
15:56 23.2 °C 7.7 °C 1017.8 hPa ENE 10.0 km/h 10.0 km/h 37 % 0.0 mm
16:01 23.0 °C 7.5 °C 1017.8 hPa ESE 16.7 km/h 16.7 km/h 37 % 0.0 mm
16:06 22.9 °C 7.8 °C 1017.8 hPa ESE 13.0 km/h 13.0 km/h 38 % 0.0 mm
16:11 23.5 °C 7.9 °C 1017.8 hPa East 11.1 km/h 11.1 km/h 37 % 0.0 mm
16:16 23.3 °C 7.8 °C 1017.8 hPa ESE 14.8 km/h 14.8 km/h 37 % 0.0 mm
16:21 23.5 °C 7.9 °C 1017.8 hPa ESE 13.0 km/h 13.0 km/h 37 % 0.0 mm
16:26 24.0 °C 8.8 °C 1017.8 hPa East 11.1 km/h 11.1 km/h 38 % 0.0 mm
16:31 23.6 °C 8.4 °C 1017.8 hPa ENE 16.7 km/h 16.7 km/h 38 % 0.0 mm
16:36 23.7 °C 8.2 °C 1017.8 hPa SE 13.0 km/h 13.0 km/h 37 % 0.0 mm
16:41 23.7 °C 8.2 °C 1017.8 hPa ESE 17.2 km/h 17.2 km/h 37 % 0.0 mm
16:46 23.3 °C 8.2 °C 1017.8 hPa ESE 14.8 km/h 14.8 km/h 38 % 0.0 mm
16:51 23.1 °C 8.0 °C 1017.8 hPa East 14.8 km/h 14.8 km/h 38 % 0.0 mm
16:56 23.3 °C 8.2 °C 1017.8 hPa ENE 9.3 km/h 9.3 km/h 38 % 0.0 mm
17:01 23.2 °C 8.1 °C 1017.8 hPa ESE 13.0 km/h 13.0 km/h 38 % 0.0 mm
17:06 23.2 °C 8.1 °C 1017.8 hPa ESE 9.7 km/h 9.7 km/h 38 % 0.0 mm
17:11 23.1 °C 8.0 °C 1017.8 hPa ESE 14.8 km/h 14.8 km/h 38 % 0.0 mm
17:16 22.9 °C 8.2 °C 1017.8 hPa NE 13.0 km/h 13.0 km/h 39 % 0.0 mm
17:21 23.0 °C 7.9 °C 1017.8 hPa ENE 14.8 km/h 14.8 km/h 38 % 0.0 mm
17:26 22.9 °C 8.2 °C 1017.8 hPa East 7.4 km/h 7.4 km/h 39 % 0.0 mm
17:36 22.6 °C 7.9 °C 1017.8 hPa ESE 20.4 km/h 20.4 km/h 39 % 0.0 mm
17:41 22.4 °C 7.8 °C 1017.8 hPa SSE 18.5 km/h 18.5 km/h 39 % 0.0 mm
17:46 22.3 °C 7.7 °C 1017.8 hPa South 9.3 km/h 9.3 km/h 39 % 0.0 mm
17:51 22.2 °C 7.6 °C 1017.8 hPa ESE 22.2 km/h 22.2 km/h 39 % 0.0 mm
17:56 22.1 °C 7.9 °C 1017.8 hPa East 14.8 km/h 14.8 km/h 40 % 0.0 mm
18:01 22.0 °C 7.8 °C 1017.8 hPa ESE 13.0 km/h 13.0 km/h 40 % 0.0 mm
18:06 22.0 °C 7.8 °C 1017.8 hPa SE 16.7 km/h 16.7 km/h 40 % 0.0 mm
18:11 21.9 °C 7.7 °C 1017.8 hPa NNE 13.0 km/h 13.0 km/h 40 % 0.0 mm
18:16 21.9 °C 7.7 °C 1017.8 hPa ESE 14.8 km/h 14.8 km/h 40 % 0.0 mm
18:21 21.6 °C 7.4 °C 1017.8 hPa NNE 15.8 km/h 15.8 km/h 40 % 0.0 mm
18:26 21.6 °C 7.8 °C 1017.8 hPa ENE 11.1 km/h 11.1 km/h 41 % 0.0 mm
18:31 21.3 °C 7.5 °C 1017.8 hPa ESE 13.0 km/h 13.0 km/h 41 % 0.0 mm
18:36 21.2 °C 7.4 °C 1017.8 hPa East 9.3 km/h 9.3 km/h 41 % 0.0 mm
18:41 21.2 °C 7.4 °C 1017.8 hPa East 11.1 km/h 11.1 km/h 41 % 0.0 mm
18:46 21.2 °C 7.4 °C 1017.8 hPa NNE 13.0 km/h 13.0 km/h 41 % 0.0 mm
18:51 21.2 °C 7.4 °C 1017.8 hPa WNW 7.4 km/h 7.4 km/h 41 % 0.0 mm
18:56 21.1 °C 7.3 °C 1017.8 hPa East 12.2 km/h 12.2 km/h 41 % 0.0 mm
19:01 21.0 °C 7.2 °C 1017.8 hPa NE 13.0 km/h 13.0 km/h 41 % 0.0 mm
19:06 20.9 °C 7.5 °C 1017.8 hPa North 11.1 km/h 11.1 km/h 42 % 0.0 mm
19:11 21.0 °C 7.6 °C 1018.8 hPa ENE 10.0 km/h 10.0 km/h 42 % 0.0 mm
19:16 20.8 °C 7.4 °C 1018.8 hPa NE 11.1 km/h 11.1 km/h 42 % 0.0 mm
19:18 20.8 °C 7.8 °C 1018.8 hPa NNE 7.4 km/h 7.4 km/h 43 % 0.0 mm
19:23 20.7 °C 7.7 °C 1018.8 hPa NNE 11.4 km/h 11.4 km/h 43 % 0.0 mm
19:28 20.7 °C 7.7 °C 1018.8 hPa East 13.0 km/h 13.0 km/h 43 % 0.0 mm
19:33 20.6 °C 7.6 °C 1018.8 hPa North 9.3 km/h 9.3 km/h 43 % 0.0 mm
19:38 20.6 °C 7.6 °C 1018.8 hPa ESE 9.3 km/h 9.3 km/h 43 % 0.0 mm
19:43 20.5 °C 7.5 °C 1018.8 hPa NNE 13.0 km/h 13.0 km/h 43 % 0.0 mm
19:48 20.4 °C 7.1 °C 1018.8 hPa ENE 11.1 km/h 11.1 km/h 42 % 0.0 mm
19:53 20.4 °C 7.4 °C 1018.8 hPa NNE 11.1 km/h 11.1 km/h 43 % 0.0 mm
19:58 20.3 °C 7.3 °C 1018.8 hPa NE 7.9 km/h 7.9 km/h 43 % 0.0 mm
20:03 20.3 °C 7.3 °C 1018.8 hPa North 7.4 km/h 7.4 km/h 43 % 0.0 mm
20:08 20.3 °C 7.7 °C 1018.8 hPa ENE 9.3 km/h 9.3 km/h 44 % 0.0 mm
20:13 20.2 °C 7.6 °C 1018.8 hPa NE 9.3 km/h 9.3 km/h 44 % 0.0 mm
20:18 20.1 °C 7.4 °C 1018.8 hPa ENE 9.3 km/h 9.3 km/h 44 % 0.0 mm
20:23 20.1 °C 7.8 °C 1018.8 hPa East 13.0 km/h 13.0 km/h 45 % 0.0 mm
20:28 20.2 °C 7.9 °C 1018.8 hPa East 9.3 km/h 9.3 km/h 45 % 0.0 mm
20:33 20.1 °C 7.8 °C 1018.8 hPa ENE 7.4 km/h 7.4 km/h 45 % 0.0 mm
20:38 20.0 °C 7.7 °C 1018.8 hPa ENE 7.4 km/h 7.4 km/h 45 % 0.0 mm
20:43 19.9 °C 7.6 °C 1019.9 hPa ENE 9.3 km/h 9.3 km/h 45 % 0.0 mm
20:48 19.9 °C 7.9 °C 1019.9 hPa ENE 9.3 km/h 9.3 km/h 46 % 0.0 mm
20:53 19.9 °C 7.9 °C 1019.9 hPa ESE 9.3 km/h 9.3 km/h 46 % 0.0 mm
20:58 19.9 °C 7.9 °C 1018.8 hPa NNE 6.4 km/h 6.4 km/h 46 % 0.0 mm
21:03 19.8 °C 7.8 °C 1018.8 hPa ENE 9.3 km/h 9.3 km/h 46 % 0.0 mm
21:08 19.8 °C 7.8 °C 1018.8 hPa ENE 5.6 km/h 5.6 km/h 46 % 0.0 mm
21:13 19.8 °C 7.8 °C 1019.9 hPa ENE 5.6 km/h 5.6 km/h 46 % 0.0 mm
21:18 19.7 °C 8.1 °C 1019.9 hPa North 5.6 km/h 5.6 km/h 47 % 0.0 mm
21:23 19.7 °C 8.1 °C 1019.9 hPa NNE 5.6 km/h 5.6 km/h 47 % 0.0 mm
21:28 19.6 °C 8.0 °C 1019.9 hPa NE 7.4 km/h 7.4 km/h 47 % 0.0 mm
21:33 19.6 °C 8.0 °C 1019.9 hPa East 7.4 km/h 7.4 km/h 47 % 0.0 mm
21:38 19.6 °C 8.0 °C 1019.9 hPa ENE 5.8 km/h 5.8 km/h 47 % 0.0 mm
21:43 19.5 °C 7.9 °C 1019.9 hPa NE 5.8 km/h 5.8 km/h 47 % 0.0 mm
21:48 19.5 °C 7.9 °C 1019.9 hPa ENE 6.1 km/h 6.1 km/h 47 % 0.0 mm
21:53 19.5 °C 7.9 °C 1019.9 hPa North 4.7 km/h 4.7 km/h 47 % 0.0 mm
21:58 19.5 °C 7.9 °C 1019.9 hPa ESE 7.4 km/h 7.4 km/h 47 % 0.0 mm
22:03 19.5 °C 8.2 °C 1019.9 hPa ESE 7.4 km/h 7.4 km/h 48 % 0.0 mm
22:08 19.5 °C 7.9 °C 1019.9 hPa ENE 3.7 km/h 3.7 km/h 47 % 0.0 mm
22:13 19.4 °C 8.1 °C 1019.9 hPa ENE 5.6 km/h 5.6 km/h 48 % 0.0 mm
22:18 19.4 °C 8.1 °C 1019.9 hPa East 5.6 km/h 5.6 km/h 48 % 0.0 mm
22:23 19.4 °C 8.1 °C 1019.9 hPa ENE 5.6 km/h 5.6 km/h 48 % 0.0 mm
22:28 19.3 °C 8.0 °C 1019.9 hPa East 3.7 km/h 3.7 km/h 48 % 0.0 mm
22:33 19.3 °C 8.0 °C 1019.9 hPa ENE 3.9 km/h 3.9 km/h 48 % 0.0 mm
22:38 19.3 °C 8.0 °C 1019.9 hPa East 3.7 km/h 3.7 km/h 48 % 0.0 mm
22:43 19.3 °C 8.0 °C 1019.9 hPa NE 3.7 km/h 3.7 km/h 48 % 0.0 mm
22:48 19.2 °C 7.9 °C 1019.9 hPa ENE 3.7 km/h 3.7 km/h 48 % 0.0 mm
22:53 19.2 °C 7.9 °C 1019.9 hPa NE 3.7 km/h 3.7 km/h 48 % 0.0 mm
22:58 19.2 °C 7.9 °C 1019.9 hPa NE 1.9 km/h   48 % 0.0 mm
23:03 19.2 °C 7.9 °C 1019.9 hPa NE 2.3 km/h 2.3 km/h 48 % 0.0 mm
23:08 19.2 °C 7.9 °C 1019.9 hPa Calm     48 % 0.0 mm
23:13 19.1 °C 8.1 °C 1020.9 hPa NNE 1.9 km/h   49 % 0.0 mm
23:18 19.1 °C 8.1 °C 1020.9 hPa East 3.2 km/h 3.2 km/h 49 % 0.0 mm
23:23 19.1 °C 8.1 °C 1020.9 hPa Calm     49 % 0.0 mm
23:28 19.0 °C 8.1 °C 1020.9 hPa WNW 1.9 km/h 1.9 km/h 49 % 0.0 mm
23:33 19.0 °C 8.1 °C 1020.9 hPa Calm     49 % 0.0 mm
23:38 19.0 °C 8.1 °C 1020.9 hPa Calm     49 % 0.0 mm
23:43 19.0 °C 8.1 °C 1020.9 hPa Calm     49 % 0.0 mm
23:48 19.0 °C 8.1 °C 1020.9 hPa NNE 1.9 km/h   49 % 0.0 mm
23:53 19.0 °C 8.1 °C 1020.9 hPa Calm     49 % 0.0 mm
23:58 19.0 °C 8.1 °C 1019.9 hPa NNE 3.7 km/h 3.7 km/h 49 % 0.0 mm
Meteo Sesrovires
Elogis d' Weather Underground - 3.5 mb

Guio original per  Jim McMurry - jmcmurry@mwt.net Adaptat per a la plantilla per  Wim van der Kuil - Leuven-Template.eu

Trobareu la nostra informacio del temps tambe a:

Weather Underground

AWEKAS